Time;durP1;ratioP1;P1;durP2;ratioP2;P2;SDS_P1;SDS_P2;PMS_P1;PMS_P2;Temp;Humidity;BMP_temperature;BMP_pressure;BME280_temperature;BME280_humidity;BME280_pressure;Samples;Min_cycle;Max_cycle;Signal;HPM_P1;HPM_P2
2024/03/10 00:00:08;;;;;;;21.08;16.50;;;8.60;99.90;;;;;;4973192;28;20045;-78
2024/03/10 00:02:35;;;;;;;26.05;18.52;;;8.60;99.90;;;;;;4992504;28;20485;-76
2024/03/10 00:05:01;;;;;;;24.65;17.70;;;8.60;99.90;;;;;;4992382;28;20354;-82
2024/03/10 00:07:27;;;;;;;23.35;17.52;;;8.50;99.90;;;;;;4971378;28;20033;-80
2024/03/10 00:09:55;;;;;;;23.58;17.65;;;8.60;99.90;;;;;;4972921;28;21858;-79
2024/03/10 00:12:22;;;;;;;26.33;18.17;;;8.50;99.90;;;;;;4990049;28;20037;-76
2024/03/10 00:14:49;;;;;;;24.73;18.63;;;8.50;99.90;;;;;;4969770;28;20029;-81
2024/03/10 00:17:15;;;;;;;20.92;16.10;;;8.50;99.90;;;;;;4969874;28;20045;-80
2024/03/10 00:19:42;;;;;;;24.13;17.45;;;8.50;99.90;;;;;;4991905;28;20029;-81
2024/03/10 00:22:09;;;;;;;21.73;16.45;;;8.50;99.90;;;;;;4996098;28;21407;-76
2024/03/10 00:24:37;;;;;;;23.65;17.75;;;8.50;99.90;;;;;;4988315;28;20048;-80
2024/03/10 00:27:03;;;;;;;25.17;17.17;;;8.50;99.90;;;;;;4970953;28;20523;-82
2024/03/10 00:29:29;;;;;;;24.90;18.35;;;8.50;99.90;;;;;;4986923;28;20045;-75
2024/03/10 00:31:56;;;;;;;23.25;17.55;;;8.50;99.90;;;;;;5005294;28;20032;-82
2024/03/10 00:34:22;;;;;;;26.65;18.85;;;8.50;99.90;;;;;;4970997;28;20044;-82
2024/03/10 00:36:48;;;;;;;27.35;19.90;;;8.40;99.90;;;;;;4991205;28;20049;-78
2024/03/10 00:39:15;;;;;;;23.55;17.80;;;8.40;99.90;;;;;;4994620;28;20052;-82
2024/03/10 00:41:41;;;;;;;23.00;16.38;;;8.40;99.90;;;;;;4976391;28;20046;-76
2024/03/10 00:44:07;;;;;;;26.67;18.13;;;8.40;99.90;;;;;;4990106;28;20037;-76
2024/03/10 00:46:34;;;;;;;23.38;16.92;;;8.50;99.90;;;;;;5001314;28;20396;-77
2024/03/10 00:49:00;;;;;;;27.13;19.63;;;8.40;99.90;;;;;;4972049;28;20034;-79
2024/03/10 00:51:26;;;;;;;28.95;19.92;;;8.40;99.90;;;;;;4988721;28;20033;-75
2024/03/10 00:53:54;;;;;;;23.98;17.73;;;8.40;99.90;;;;;;4991888;28;20033;-77
2024/03/10 00:56:20;;;;;;;25.58;18.33;;;8.40;99.90;;;;;;4975247;28;20054;-81
2024/03/10 00:58:46;;;;;;;25.33;17.95;;;8.40;99.90;;;;;;4976847;28;20037;-80
2024/03/10 01:01:13;;;;;;;26.58;19.25;;;8.40;99.90;;;;;;4972194;28;20041;-82
2024/03/10 01:03:43;;;;;;;25.13;17.60;;;8.40;99.90;;;;;;4956008;28;20026;-76
2024/03/10 01:06:12;;;;;;;25.50;20.05;;;8.40;99.90;;;;;;4983473;28;20026;-80
2024/03/10 01:08:39;;;;;;;25.48;18.90;;;8.40;99.90;;;;;;4983073;28;20555;-83
2024/03/10 01:11:06;;;;;;;26.60;18.25;;;8.40;99.90;;;;;;4991996;28;20030;-83
2024/03/10 01:13:32;;;;;;;25.05;17.83;;;8.40;99.90;;;;;;4974367;28;20396;-80
2024/03/10 01:15:59;;;;;;;24.58;18.92;;;8.40;99.90;;;;;;4985881;28;21280;-76
2024/03/10 01:18:25;;;;;;;25.63;18.35;;;8.30;99.90;;;;;;4986105;28;20468;-79
2024/03/10 01:20:51;;;;;;;30.73;20.17;;;8.40;99.90;;;;;;4990584;28;20037;-81
2024/03/10 01:23:19;;;;;;;25.45;18.95;;;8.30;99.90;;;;;;4991756;28;20037;-77
2024/03/10 01:25:46;;;;;;;24.05;17.95;;;8.30;99.90;;;;;;4995487;28;20037;-79
2024/03/10 01:28:12;;;;;;;27.27;19.67;;;8.30;99.90;;;;;;4999095;28;20496;-82
2024/03/10 01:30:39;;;;;;;26.80;19.85;;;8.30;99.90;;;;;;4989977;28;20045;-84
2024/03/10 01:33:06;;;;;;;25.70;19.15;;;8.30;99.90;;;;;;4992919;28;20036;-80
2024/03/10 01:35:33;;;;;;;24.67;18.20;;;8.30;99.90;;;;;;4971671;28;20458;-79
2024/03/10 01:37:59;;;;;;;33.35;19.60;;;8.30;99.90;;;;;;4990518;28;20040;-76
2024/03/10 01:40:25;;;;;;;28.40;19.45;;;8.30;99.90;;;;;;4994886;28;20033;-76
2024/03/10 01:42:55;;;;;;;25.85;18.15;;;8.20;99.90;;;;;;4999922;28;20426;-79
2024/03/10 01:45:22;;;;;;;26.80;18.83;;;8.20;99.90;;;;;;4980693;28;20037;-83
2024/03/10 01:47:52;;;;;;;26.90;17.92;;;8.20;99.90;;;;;;4977276;28;20056;-81
2024/03/10 01:50:20;;;;;;;25.88;18.77;;;8.20;99.90;;;;;;4973011;28;20962;-79
2024/03/10 01:52:47;;;;;;;24.88;17.23;;;8.20;99.90;;;;;;4993880;28;20033;-80
2024/03/10 01:55:17;;;;;;;25.95;19.90;;;8.20;99.90;;;;;;4990538;28;20607;-78
2024/03/10 01:57:46;;;;;;;26.83;19.52;;;8.20;99.90;;;;;;4980577;28;20037;-82
2024/03/10 02:00:13;;;;;;;21.92;15.90;;;8.20;99.90;;;;;;4984931;28;20028;-75
2024/03/10 02:02:42;;;;;;;26.55;18.83;;;8.20;99.90;;;;;;4963075;28;20060;-81
2024/03/10 02:05:09;;;;;;;24.92;18.52;;;8.20;99.90;;;;;;4991067;28;20040;-81
2024/03/10 02:07:36;;;;;;;24.60;17.88;;;8.20;99.90;;;;;;4971863;28;20060;-82
2024/03/10 02:10:06;;;;;;;25.05;18.92;;;8.20;99.90;;;;;;4986701;28;20041;-76
2024/03/10 02:12:34;;;;;;;26.30;19.88;;;8.20;99.90;;;;;;4975143;28;20037;-82
2024/03/10 02:15:03;;;;;;;27.10;19.70;;;8.20;99.90;;;;;;4997810;28;20040;-80
2024/03/10 02:17:30;;;;;;;26.45;19.15;;;8.20;99.90;;;;;;4975493;28;20056;-78
2024/03/10 02:19:57;;;;;;;27.27;20.00;;;8.20;99.90;;;;;;4970939;28;20033;-76
2024/03/10 02:22:28;;;;;;;28.85;20.17;;;8.20;99.90;;;;;;4968154;28;22301;-80
2024/03/10 02:24:57;;;;;;;26.50;18.95;;;8.20;99.90;;;;;;4987385;28;20033;-82
2024/03/10 02:27:24;;;;;;;28.95;20.92;;;8.20;99.90;;;;;;4974739;28;20021;-76
2024/03/10 02:30:00;;;;;;;27.90;20.08;;;8.20;99.90;;;;;;4993425;28;20077;-79
2024/03/10 02:48:58;;;;;;;27.52;20.30;;;8.00;99.90;;;;;;4996755;28;20041;-76
2024/03/10 02:51:26;;;;;;;27.08;20.10;;;8.00;99.90;;;;;;4993426;28;20042;-83
2024/03/10 02:53:52;;;;;;;32.47;21.17;;;8.00;99.90;;;;;;4975306;28;20038;-83
2024/03/10 02:56:22;;;;;;;32.78;22.90;;;8.00;99.90;;;;;;4988157;28;20048;-78
2024/03/10 02:58:49;;;;;;;29.67;21.45;;;7.90;99.90;;;;;;4985994;28;20146;-84
2024/03/10 03:01:18;;;;;;;27.30;21.02;;;7.90;99.90;;;;;;4992020;28;20537;-77
2024/03/10 03:03:45;;;;;;;29.42;22.25;;;7.90;99.90;;;;;;4983353;28;20048;-84
2024/03/10 03:06:12;;;;;;;28.08;20.75;;;7.90;99.90;;;;;;4976137;28;20028;-87
2024/03/10 03:08:39;;;;;;;28.25;20.40;;;7.90;99.90;;;;;;4973782;28;20048;-83
2024/03/10 03:11:06;;;;;;;27.17;20.17;;;7.90;99.90;;;;;;4976019;28;21513;-79
2024/03/10 03:13:32;;;;;;;28.02;20.30;;;7.90;99.90;;;;;;4960289;28;20048;-77
2024/03/10 03:15:59;;;;;;;29.70;20.83;;;7.90;99.90;;;;;;4975675;28;20266;-78
2024/03/10 03:18:25;;;;;;;32.17;21.40;;;7.90;99.90;;;;;;4997776;28;20495;-86
2024/03/10 03:20:52;;;;;;;28.27;20.98;;;7.90;99.90;;;;;;4997687;28;20922;-85
2024/03/10 03:23:18;;;;;;;27.58;19.13;;;7.90;99.90;;;;;;4975897;28;20034;-80
2024/03/10 03:25:45;;;;;;;30.52;21.23;;;7.80;99.90;;;;;;4972177;28;20484;-84
2024/03/10 03:28:12;;;;;;;29.20;21.67;;;7.90;99.90;;;;;;4959426;28;20044;-85
2024/03/10 03:30:42;;;;;;;28.73;21.15;;;7.90;99.90;;;;;;4990124;28;20048;-82
2024/03/10 03:33:09;;;;;;;28.50;20.40;;;7.90;99.90;;;;;;4978990;28;20952;-84
2024/03/10 03:35:38;;;;;;;30.23;21.35;;;7.90;99.90;;;;;;4999326;28;20037;-87
2024/03/10 03:38:05;;;;;;;28.67;21.02;;;7.90;99.90;;;;;;4986866;28;20033;-85
2024/03/10 03:40:32;;;;;;;30.60;22.08;;;7.80;99.90;;;;;;4969192;28;20037;-78
2024/03/10 03:42:59;;;;;;;31.55;21.17;;;7.80;99.90;;;;;;4955336;28;20701;-79
2024/03/10 03:45:26;;;;;;;29.17;20.88;;;7.80;99.90;;;;;;4989006;28;20491;-82
2024/03/10 03:47:52;;;;;;;27.75;20.23;;;7.80;99.90;;;;;;4987062;28;20403;-88
2024/03/10 03:50:20;;;;;;;30.00;20.77;;;7.80;99.90;;;;;;4993978;28;20405;-80
2024/03/10 03:52:51;;;;;;;29.15;20.70;;;7.80;99.90;;;;;;4959809;28;20030;-80
2024/03/10 03:55:18;;;;;;;30.88;21.70;;;7.80;99.90;;;;;;4970276;28;20044;-85
2024/03/10 03:57:45;;;;;;;33.05;22.83;;;7.80;99.90;;;;;;4988463;28;20068;-80
2024/03/10 04:00:12;;;;;;;27.98;20.00;;;7.80;99.90;;;;;;4993404;28;20037;-84
2024/03/10 04:02:38;;;;;;;28.88;21.33;;;7.80;99.90;;;;;;4992475;28;20033;-83
2024/03/10 04:05:05;;;;;;;30.00;21.73;;;7.70;99.90;;;;;;4992105;28;20499;-82
2024/03/10 04:07:31;;;;;;;31.38;22.85;;;7.70;99.90;;;;;;4979159;28;20033;-84
2024/03/10 04:09:58;;;;;;;29.05;20.70;;;7.70;99.90;;;;;;4998625;28;20064;-86
2024/03/10 04:12:24;;;;;;;33.50;22.67;;;7.60;99.90;;;;;;4992512;28;20041;-81
2024/03/10 04:14:50;;;;;;;27.30;20.55;;;7.60;99.90;;;;;;4956501;28;20045;-79
2024/03/10 04:17:17;;;;;;;29.98;21.45;;;7.50;99.90;;;;;;4986082;28;20029;-80
2024/03/10 04:19:44;;;;;;;27.73;20.35;;;7.50;99.90;;;;;;5002706;28;20060;-82
2024/03/10 04:22:10;;;;;;;30.63;21.20;;;7.40;99.90;;;;;;4972983;28;20041;-78
2024/03/10 04:24:39;;;;;;;27.83;20.85;;;7.40;99.90;;;;;;4995355;28;20460;-78
2024/03/10 04:27:09;;;;;;;30.92;20.30;;;7.30;99.90;;;;;;4991224;28;20060;-79
2024/03/10 04:29:35;;;;;;;30.05;20.77;;;7.30;99.90;;;;;;4987702;28;20449;-78
2024/03/10 04:32:02;;;;;;;28.08;20.30;;;7.30;99.90;;;;;;4987798;28;20136;-78
2024/03/10 04:34:29;;;;;;;30.55;20.50;;;7.20;99.90;;;;;;4956043;28;20041;-78
2024/03/10 04:36:55;;;;;;;27.08;20.17;;;7.20;99.90;;;;;;4986758;28;20077;-78
2024/03/10 04:39:21;;;;;;;29.02;21.10;;;7.20;99.90;;;;;;4989884;28;20285;-78
2024/03/10 04:41:48;;;;;;;33.80;23.70;;;7.20;99.90;;;;;;4996404;28;20463;-78
2024/03/10 04:44:14;;;;;;;27.85;20.88;;;7.20;99.90;;;;;;4994388;28;20479;-79
2024/03/10 04:46:41;;;;;;;28.85;21.20;;;7.10;99.90;;;;;;4967308;28;20045;-78
2024/03/10 04:49:07;;;;;;;29.45;20.88;;;7.10;99.90;;;;;;4989031;28;20045;-78
2024/03/10 04:51:34;;;;;;;35.40;23.55;;;7.10;99.90;;;;;;4971985;28;20488;-78
2024/03/10 04:54:00;;;;;;;30.85;20.17;;;7.10;99.90;;;;;;5022671;28;20385;-78
2024/03/10 04:56:26;;;;;;;29.42;21.80;;;7.10;99.90;;;;;;4967649;28;20154;-80
2024/03/10 04:58:53;;;;;;;31.52;22.13;;;7.10;99.90;;;;;;4998923;28;20466;-79
2024/03/10 05:01:19;;;;;;;26.48;19.88;;;7.10;99.90;;;;;;4993001;28;20025;-81
2024/03/10 05:03:46;;;;;;;30.67;21.38;;;7.00;99.90;;;;;;4991425;28;20045;-80
2024/03/10 05:06:12;;;;;;;32.53;23.13;;;7.00;99.90;;;;;;4991166;28;20052;-81
2024/03/10 05:08:39;;;;;;;31.00;21.55;;;7.00;99.90;;;;;;4974064;28;20046;-81
2024/03/10 05:11:05;;;;;;;30.10;22.42;;;7.00;99.90;;;;;;4991027;28;20037;-80
2024/03/10 05:13:36;;;;;;;33.30;21.20;;;7.00;99.90;;;;;;4984355;28;20499;-81
2024/03/10 05:16:05;;;;;;;28.33;20.35;;;7.00;99.90;;;;;;5030852;28;20038;-81
2024/03/10 05:18:32;;;;;;;28.98;20.95;;;7.00;99.90;;;;;;4991462;28;20469;-80
2024/03/10 05:20:58;;;;;;;29.20;21.05;;;7.00;99.90;;;;;;4990941;28;20037;-82
2024/03/10 05:23:26;;;;;;;29.25;20.80;;;7.00;99.90;;;;;;4975926;28;20456;-83
2024/03/10 05:25:53;;;;;;;33.58;22.58;;;7.00;99.90;;;;;;4990242;28;20104;-81
2024/03/10 05:28:19;;;;;;;33.13;22.90;;;6.90;99.90;;;;;;5001533;28;20060;-81
2024/03/10 05:30:46;;;;;;;33.22;22.42;;;6.90;99.90;;;;;;4998118;28;20086;-82
2024/03/10 05:33:12;;;;;;;32.88;22.02;;;6.90;99.90;;;;;;4979752;28;20520;-82
2024/03/10 05:35:39;;;;;;;32.70;21.52;;;7.00;99.90;;;;;;4990276;28;20052;-79
2024/03/10 05:38:05;;;;;;;32.03;21.38;;;6.90;99.90;;;;;;4973072;28;20042;-79
2024/03/10 05:40:32;;;;;;;32.20;23.70;;;6.90;99.90;;;;;;4973743;28;20030;-80
2024/03/10 05:42:58;;;;;;;37.47;23.50;;;6.90;99.90;;;;;;4990824;28;20028;-82
2024/03/10 05:45:25;;;;;;;32.45;22.42;;;6.90;99.90;;;;;;4964038;28;20048;-79
2024/03/10 05:47:51;;;;;;;35.05;24.25;;;6.90;99.90;;;;;;4998415;28;20485;-80
2024/03/10 05:50:19;;;;;;;29.52;21.45;;;6.90;99.90;;;;;;4958708;28;20515;-79
2024/03/10 05:52:46;;;;;;;33.03;21.85;;;6.90;99.90;;;;;;4972240;28;20025;-78
2024/03/10 05:55:12;;;;;;;35.33;23.88;;;6.90;99.90;;;;;;4989740;28;20856;-80
2024/03/10 05:57:41;;;;;;;31.40;22.42;;;6.90;99.90;;;;;;4974329;28;20488;-78
2024/03/10 06:00:14;;;;;;;32.45;22.35;;;6.90;99.90;;;;;;4977589;28;20396;-80
2024/03/10 06:02:48;;;;;;;31.90;23.42;;;6.90;99.90;;;;;;4980412;28;20033;-80
2024/03/10 06:05:14;;;;;;;32.97;20.98;;;6.80;99.90;;;;;;4977080;28;20045;-80
2024/03/10 06:07:44;;;;;;;34.20;23.27;;;6.80;99.90;;;;;;4989356;28;20059;-78
2024/03/10 06:10:11;;;;;;;33.50;22.90;;;6.80;99.90;;;;;;4988431;28;20041;-79
2024/03/10 06:12:42;;;;;;;34.13;23.27;;;6.80;99.90;;;;;;5007004;28;20488;-80
2024/03/10 06:15:16;;;;;;;29.27;21.42;;;6.80;99.90;;;;;;4972029;28;20033;-79
2024/03/10 06:17:50;;;;;;;33.47;24.60;;;6.80;99.90;;;;;;4993878;28;21273;-80
2024/03/10 06:25:48;;;;;;;31.65;21.73;;;6.80;99.90;;;;;;4986797;28;20053;-81
2024/03/10 06:28:14;;;;;;;32.88;22.55;;;6.90;99.90;;;;;;4989221;28;20034;-79
2024/03/10 06:30:40;;;;;;;32.03;21.73;;;6.80;99.90;;;;;;4974525;28;20034;-80
2024/03/10 06:33:07;;;;;;;31.25;21.55;;;6.80;99.90;;;;;;4991772;28;20479;-79
2024/03/10 06:35:34;;;;;;;29.98;21.23;;;6.80;99.90;;;;;;4981755;28;20037;-79
2024/03/10 06:38:03;;;;;;;32.83;22.85;;;6.90;99.90;;;;;;5029846;28;20464;-82
2024/03/10 06:40:29;;;;;;;31.05;20.92;;;6.90;99.90;;;;;;4975353;28;20056;-81
2024/03/10 06:42:56;;;;;;;32.90;21.13;;;6.90;99.90;;;;;;4957977;28;20481;-81
2024/03/10 06:45:23;;;;;;;33.92;23.00;;;7.00;99.90;;;;;;4988399;28;20042;-79
2024/03/10 06:47:50;;;;;;;30.10;20.42;;;7.00;99.90;;;;;;4972120;28;20038;-79
2024/03/10 06:50:17;;;;;;;30.27;21.63;;;7.00;99.90;;;;;;4997472;28;20516;-82
2024/03/10 06:52:46;;;;;;;33.95;22.65;;;7.10;99.90;;;;;;4998772;28;20038;-81
2024/03/10 06:55:14;;;;;;;33.00;21.60;;;7.10;99.90;;;;;;4989846;28;20048;-80
2024/03/10 06:57:40;;;;;;;32.83;22.25;;;7.10;99.90;;;;;;5002585;28;20041;-80
2024/03/10 07:00:12;;;;;;;28.85;20.77;;;7.10;99.90;;;;;;4989617;28;20044;-78
2024/03/10 07:02:45;;;;;;;31.50;22.10;;;7.10;99.90;;;;;;4976352;28;20364;-78
2024/03/10 07:05:11;;;;;;;;;;;7.10;99.90;;;;;;4994882;28;20041;-80
2024/03/10 07:07:38;;;;;;;29.70;20.45;;;7.10;99.90;;;;;;4998800;28;19920;-81
2024/03/10 07:10:04;;;;;;;29.08;20.48;;;7.10;99.90;;;;;;4997283;28;20029;-80
2024/03/10 07:12:31;;;;;;;30.58;21.13;;;7.10;99.90;;;;;;4974164;28;20030;-79
2024/03/10 07:14:57;;;;;;;29.35;19.67;;;7.10;99.90;;;;;;4971754;28;20032;-79
2024/03/10 07:17:27;;;;;;;29.63;20.20;;;7.20;99.90;;;;;;4985687;28;20045;-81
2024/03/10 07:19:53;;;;;;;28.92;19.80;;;7.20;99.90;;;;;;4988267;28;20033;-80
2024/03/10 07:22:20;;;;;;;30.42;20.65;;;7.20;99.90;;;;;;4982922;28;20037;-80
2024/03/10 07:24:46;;;;;;;30.77;22.02;;;7.30;99.90;;;;;;4981450;28;20506;-80
2024/03/10 07:27:12;;;;;;;31.42;20.00;;;7.30;99.90;;;;;;4972158;28;20042;-80
2024/03/10 07:29:39;;;;;;;29.10;20.45;;;7.40;99.90;;;;;;4969773;28;20040;-80
2024/03/10 07:32:06;;;;;;;29.83;20.85;;;7.40;99.90;;;;;;4957727;28;20037;-78
2024/03/10 07:34:32;;;;;;;26.98;19.48;;;7.50;99.90;;;;;;4971862;28;20033;-78
2024/03/10 07:37:00;;;;;;;26.42;19.90;;;7.50;99.90;;;;;;4987141;28;20487;-81
2024/03/10 07:39:26;;;;;;;28.85;19.98;;;7.60;99.90;;;;;;4994240;28;20029;-80
2024/03/10 07:41:53;;;;;;;26.15;19.10;;;7.60;99.90;;;;;;4983051;28;20044;-79
2024/03/10 07:44:19;;;;;;;26.00;18.60;;;7.60;99.90;;;;;;4985280;28;20613;-80
2024/03/10 07:46:45;;;;;;;28.67;20.33;;;7.70;99.90;;;;;;4983623;28;20334;-81
2024/03/10 07:49:12;;;;;;;29.05;20.17;;;7.80;99.90;;;;;;4970889;28;20037;-78
2024/03/10 07:51:38;;;;;;;28.15;20.75;;;7.90;99.90;;;;;;4983884;28;20033;-80
2024/03/10 07:54:05;;;;;;;28.05;19.25;;;8.00;99.90;;;;;;4977098;28;20515;-81
2024/03/10 07:56:32;;;;;;;25.60;17.88;;;8.10;99.90;;;;;;4981304;28;20465;-81
2024/03/10 07:58:58;;;;;;;24.50;18.20;;;8.20;99.90;;;;;;4959351;28;20040;-80
2024/03/10 08:01:24;;;;;;;26.85;19.20;;;8.30;99.90;;;;;;4986826;28;20037;-81
2024/03/10 08:03:51;;;;;;;25.55;18.92;;;8.50;99.90;;;;;;5004288;28;20041;-80
2024/03/10 08:06:17;;;;;;;25.70;19.25;;;8.60;99.90;;;;;;4988131;28;20332;-80
2024/03/10 08:08:44;;;;;;;27.55;19.98;;;8.70;99.90;;;;;;4989684;28;20047;-79
2024/03/10 08:11:12;;;;;;;26.08;19.25;;;8.90;99.90;;;;;;4997013;28;20046;-81
2024/03/10 08:13:40;;;;;;;28.80;18.92;;;9.00;99.90;;;;;;4989124;28;20041;-80
2024/03/10 08:16:07;;;;;;;26.50;19.27;;;9.20;99.90;;;;;;4972181;28;20042;-81
2024/03/10 08:18:33;;;;;;;23.45;18.27;;;9.30;99.90;;;;;;5021233;28;20037;-81
2024/03/10 08:20:59;;;;;;;26.88;18.25;;;9.40;99.90;;;;;;4990945;28;20044;-78
2024/03/10 08:23:26;;;;;;;22.88;17.50;;;9.60;99.90;;;;;;4994925;28;20025;-82
2024/03/10 08:25:53;;;;;;;27.00;18.95;;;9.60;99.90;;;;;;4994487;28;20036;-80
2024/03/10 08:28:20;;;;;;;27.95;19.58;;;9.70;99.90;;;;;;4988243;28;20033;-80
2024/03/10 08:30:46;;;;;;;24.67;17.92;;;9.70;99.90;;;;;;4985479;28;20049;-81
2024/03/10 08:33:13;;;;;;;24.38;18.70;;;9.70;99.90;;;;;;4970302;28;20041;-79
2024/03/10 08:35:40;;;;;;;26.55;19.10;;;9.70;99.90;;;;;;4990370;28;20041;-81
2024/03/10 08:38:07;;;;;;;24.60;18.02;;;9.60;99.90;;;;;;5010287;28;20427;-81
2024/03/10 08:40:34;;;;;;;25.95;19.88;;;9.60;99.90;;;;;;5010822;28;20049;-80
2024/03/10 08:43:00;;;;;;;24.83;18.70;;;9.60;99.90;;;;;;4958489;28;20516;-81
2024/03/10 08:45:28;;;;;;;23.42;17.73;;;9.50;99.90;;;;;;4989100;28;20397;-80
2024/03/10 08:47:55;;;;;;;24.27;18.10;;;9.50;99.90;;;;;;4989837;28;20469;-82
2024/03/10 08:50:21;;;;;;;27.13;18.67;;;9.50;99.90;;;;;;4971369;28;20363;-79
2024/03/10 08:52:48;;;;;;;24.48;18.65;;;9.50;99.90;;;;;;4998362;28;20901;-82
2024/03/10 08:55:16;;;;;;;22.20;16.73;;;9.60;99.90;;;;;;4977645;28;21227;-79
2024/03/10 08:57:43;;;;;;;21.33;16.30;;;9.60;99.90;;;;;;4967905;28;20389;-79
2024/03/10 09:00:10;;;;;;;23.55;18.25;;;9.70;99.90;;;;;;4970532;28;20056;-77
2024/03/10 09:02:38;;;;;;;23.85;18.23;;;9.80;99.90;;;;;;4988044;28;20037;-80
2024/03/10 09:05:07;;;;;;;25.63;18.92;;;9.90;99.90;;;;;;4971362;28;20037;-81
2024/03/10 09:07:36;;;;;;;23.17;17.58;;;10.00;99.90;;;;;;4978644;28;20227;-82
2024/03/10 09:10:04;;;;;;;25.60;18.98;;;10.10;99.90;;;;;;4993960;28;20050;-80
2024/03/10 09:12:32;;;;;;;21.00;16.65;;;10.20;99.90;;;;;;4988202;28;20021;-80
2024/03/10 09:14:59;;;;;;;21.30;15.68;;;10.40;99.90;;;;;;4986512;28;20033;-80
2024/03/10 09:17:25;;;;;;;24.33;18.15;;;10.50;99.90;;;;;;4970099;28;20037;-80
2024/03/10 09:19:52;;;;;;;22.52;17.60;;;10.70;99.90;;;;;;5020884;28;20393;-81
2024/03/10 09:22:19;;;;;;;24.08;18.20;;;10.80;99.90;;;;;;4979514;28;20040;-79
2024/03/10 09:24:48;;;;;;;22.10;16.27;;;10.90;99.90;;;;;;4974226;28;20044;-81
2024/03/10 09:27:15;;;;;;;22.25;17.08;;;10.90;99.90;;;;;;4972058;28;20057;-79
2024/03/10 09:29:41;;;;;;;25.48;18.95;;;11.00;99.90;;;;;;4986586;28;20033;-78
2024/03/10 09:32:07;;;;;;;22.73;17.13;;;10.90;99.90;;;;;;4989492;28;20033;-79
2024/03/10 09:34:36;;;;;;;22.42;17.80;;;10.90;99.90;;;;;;4968567;28;20038;-79
2024/03/10 09:37:06;;;;;;;24.30;17.95;;;10.90;99.90;;;;;;4977615;28;20052;-80
2024/03/10 09:39:32;;;;;;;27.52;20.05;;;11.00;99.90;;;;;;4991113;28;20034;-80
2024/03/10 09:41:59;;;;;;;23.90;18.15;;;11.00;99.90;;;;;;4982362;28;20029;-80
2024/03/10 09:44:26;;;;;;;23.17;17.75;;;11.10;99.90;;;;;;4965703;28;20065;-78
2024/03/10 09:46:55;;;;;;;24.60;18.20;;;11.20;99.90;;;;;;5014550;28;20456;-80
2024/03/10 09:49:22;;;;;;;23.75;17.23;;;11.30;99.90;;;;;;4969571;28;20029;-79
2024/03/10 09:51:49;;;;;;;23.88;18.23;;;11.40;99.90;;;;;;4992722;28;20029;-79
2024/03/10 09:54:17;;;;;;;23.77;18.38;;;11.50;99.90;;;;;;4986301;28;21253;-79
2024/03/10 09:56:47;;;;;;;24.67;18.70;;;11.60;99.90;;;;;;4989399;28;20037;-80
2024/03/10 09:59:27;;;;;;;24.67;18.98;;;11.70;99.90;;;;;;4999520;28;20037;-78
2024/03/10 10:01:54;;;;;;;25.73;19.95;;;11.70;99.90;;;;;;4986457;28;20048;-76
2024/03/10 10:04:25;;;;;;;24.52;19.52;;;11.70;99.90;;;;;;4989454;28;20038;-78
2024/03/10 10:06:53;;;;;;;27.30;19.17;;;11.80;99.90;;;;;;4995164;28;20049;-80
2024/03/10 10:09:20;;;;;;;24.80;19.17;;;11.90;99.90;;;;;;4991149;28;20033;-77
2024/03/10 10:11:46;;;;;;;27.13;21.40;;;11.80;99.90;;;;;;4952273;28;20945;-81
2024/03/10 10:14:14;;;;;;;31.30;23.75;;;11.80;99.90;;;;;;4969854;28;20053;-80
2024/03/10 10:16:56;;;;;;;26.80;20.45;;;11.90;99.90;;;;;;5002892;28;20042;-80
2024/03/10 10:19:27;;;;;;;23.33;17.65;;;12.00;99.90;;;;;;4998229;28;20029;-81
2024/03/10 10:21:54;;;;;;;19.40;15.25;;;12.10;99.90;;;;;;4982479;28;20032;-81
2024/03/10 10:24:22;;;;;;;23.10;18.75;;;12.30;99.90;;;;;;4982654;28;20032;-78
2024/03/10 10:27:02;;;;;;;24.75;18.27;;;12.40;99.90;;;;;;4981855;28;20037;-80
2024/03/10 10:29:30;;;;;;;22.73;18.27;;;12.50;99.90;;;;;;4981487;28;22585;-79
2024/03/10 10:31:58;;;;;;;23.60;17.85;;;12.50;99.90;;;;;;4989256;28;21638;-81
2024/03/10 10:34:25;;;;;;;24.63;19.92;;;12.50;99.90;;;;;;4996983;28;20029;-80
2024/03/10 10:36:54;;;;;;;24.10;19.20;;;12.50;99.90;;;;;;4986372;28;20768;-80
2024/03/10 10:39:29;;;;;;;23.77;18.50;;;12.40;99.90;;;;;;4950915;28;20451;-80
2024/03/10 10:41:58;;;;;;;23.52;17.83;;;12.50;99.90;;;;;;4955297;28;20037;-79
2024/03/10 10:44:26;;;;;;;21.02;17.02;;;12.70;99.90;;;;;;4962195;28;20041;-82
2024/03/10 10:46:52;;;;;;;24.92;18.95;;;13.00;99.90;;;;;;4951791;28;20521;-80
2024/03/10 10:49:21;;;;;;;22.85;18.45;;;13.00;99.90;;;;;;4993092;28;20036;-79
2024/03/10 10:51:52;;;;;;;19.13;15.60;;;13.10;99.90;;;;;;4987164;28;20730;-81
2024/03/10 10:54:19;;;;;;;20.08;16.15;;;13.10;99.90;;;;;;4968911;28;20037;-80
2024/03/10 10:56:56;;;;;;;18.83;15.73;;;13.20;99.90;;;;;;4950368;28;20037;-80
2024/03/10 10:59:27;;;;;;;24.15;19.05;;;13.30;99.90;;;;;;4963294;28;20680;-80
2024/03/10 11:02:05;;;;;;;21.00;17.48;;;13.40;99.90;;;;;;4979143;28;20554;-80
2024/03/10 11:04:36;;;;;;;23.50;18.20;;;13.20;99.90;;;;;;4997220;28;20855;-81
2024/03/10 11:07:05;;;;;;;23.60;17.60;;;13.20;99.90;;;;;;4989267;28;20064;-81
2024/03/10 11:09:31;;;;;;;22.65;18.30;;;13.30;99.90;;;;;;4953024;28;21293;-83
2024/03/10 11:11:58;;;;;;;23.80;19.15;;;13.40;99.90;;;;;;4968081;28;20068;-78
2024/03/10 11:14:26;;;;;;;20.63;16.45;;;13.40;99.90;;;;;;4984263;28;20064;-80
2024/03/10 11:17:29;;;;;;;19.27;16.30;;;13.40;99.90;;;;;;4985892;28;20059;-79
2024/03/10 11:19:58;;;;;;;23.10;17.95;;;13.50;99.90;;;;;;4956716;28;20361;-80
2024/03/10 11:22:27;;;;;;;22.63;18.08;;;13.70;99.90;;;;;;4968175;28;20049;-81
2024/03/10 11:25:16;;;;;;;21.92;18.23;;;13.90;99.90;;;;;;4960497;28;20049;-79
2024/03/10 11:27:47;;;;;;;21.40;16.88;;;14.10;99.90;;;;;;4955662;28;20042;-82
2024/03/10 11:30:48;;;;;;;23.08;17.88;;;14.30;99.90;;;;;;4974521;28;21155;-81
2024/03/10 11:33:21;;;;;;;20.70;17.20;;;14.70;99.90;;;;;;4987165;28;20049;-80
2024/03/10 11:35:48;;;;;;;19.60;16.50;;;14.90;99.90;;;;;;4968002;28;20508;-81
2024/03/10 11:38:15;;;;;;;18.25;15.48;;;15.00;99.90;;;;;;4961198;28;20046;-79
2024/03/10 11:40:43;;;;;;;19.48;16.17;;;15.20;99.90;;;;;;4944345;28;20056;-80
2024/03/10 11:43:13;;;;;;;21.00;17.60;;;15.40;99.90;;;;;;4961059;28;20080;-80
2024/03/10 11:45:41;;;;;;;32.92;22.67;;;15.40;99.90;;;;;;4960087;28;20042;-81
2024/03/10 11:48:08;;;;;;;26.17;19.88;;;15.40;99.90;;;;;;4941381;28;20065;-78
2024/03/10 11:50:35;;;;;;;21.38;18.17;;;15.40;99.50;;;;;;4967059;28;20470;-81
2024/03/10 11:53:02;;;;;;;22.00;18.02;;;15.20;99.10;;;;;;4955875;28;20042;-80
2024/03/10 11:55:28;;;;;;;20.05;16.83;;;14.90;98.80;;;;;;4987109;28;20025;-82
2024/03/10 11:57:55;;;;;;;21.00;18.00;;;14.70;99.10;;;;;;4966037;28;20033;-80
2024/03/10 12:00:23;;;;;;;23.15;18.70;;;14.50;99.40;;;;;;4986675;28;20805;-79
2024/03/10 12:02:51;;;;;;;22.70;19.40;;;14.40;99.30;;;;;;4974860;28;20044;-80
2024/03/10 12:05:18;;;;;;;28.05;21.52;;;14.30;99.60;;;;;;4988424;28;20670;-80
2024/03/10 12:07:53;;;;;;;22.50;19.48;;;14.30;99.70;;;;;;4952640;28;20057;-80
2024/03/10 12:10:21;;;;;;;21.83;18.65;;;14.20;99.90;;;;;;4970506;28;20091;-81
2024/03/10 12:12:51;;;;;;;24.48;20.95;;;14.20;99.70;;;;;;4986078;28;21072;-79
2024/03/10 12:15:19;;;;;;;24.48;20.67;;;14.40;99.80;;;;;;4976977;28;20030;-78
2024/03/10 12:17:53;;;;;;;20.83;17.02;;;14.50;99.60;;;;;;4981243;28;20068;-79
2024/03/10 12:20:22;;;;;;;26.10;20.92;;;14.80;99.80;;;;;;4958768;28;20037;-79
2024/03/10 12:22:48;;;;;;;22.02;18.27;;;15.30;99.70;;;;;;4971546;28;20036;-77
2024/03/10 12:25:18;;;;;;;22.98;18.80;;;15.60;99.10;;;;;;4988718;28;20040;-78
2024/03/10 12:27:44;;;;;;;22.70;18.52;;;16.00;99.10;;;;;;4970948;28;20660;-80
2024/03/10 12:30:11;;;;;;;22.17;17.83;;;16.50;98.30;;;;;;4994069;28;21638;-82
2024/03/10 12:32:50;;;;;;;23.40;20.88;;;16.80;97.80;;;;;;4992027;28;20036;-82
2024/03/10 12:35:19;;;;;;;22.40;19.23;;;17.10;97.50;;;;;;4957023;28;20136;-80
2024/03/10 12:37:46;;;;;;;20.10;17.10;;;17.30;97.00;;;;;;4989896;28;20047;-79
2024/03/10 12:40:16;;;;;;;23.02;19.80;;;17.20;97.10;;;;;;4993076;28;20898;-80
2024/03/10 12:42:43;;;;;;;20.25;17.67;;;17.00;96.90;;;;;;4975894;28;20030;-79
2024/03/10 12:45:11;;;;;;;22.25;19.15;;;16.70;96.80;;;;;;4996962;28;20033;-79
2024/03/10 12:47:37;;;;;;;20.20;17.98;;;16.70;97.10;;;;;;4997375;28;20029;-79
2024/03/10 12:50:07;;;;;;;22.20;19.80;;;16.70;97.20;;;;;;4992128;28;20042;-82
2024/03/10 12:52:34;;;;;;;21.52;18.98;;;16.50;96.60;;;;;;4977079;28;20044;-80
2024/03/10 12:55:01;;;;;;;22.92;20.42;;;16.20;96.30;;;;;;4990748;28;20033;-80
2024/03/10 12:57:27;;;;;;;29.05;22.58;;;16.20;96.40;;;;;;4988920;28;20044;-79